Data for 05/05/2014

Time Sea-Level Adjusted Pressure Absolute Pressure Temperature Relative Humidity Dew Point   
(mb) (inHg) (mb) (inHg) (C) (F) (%) (C) (F)
00:05 1013 29.91 842 24.86 7.5 45.5 72 2.8 37.1
00:10 1013 29.91 842 24.86 7.5 45.6 73 3.1 37.6
00:15 1013 29.91 842 24.86 7.2 44.9 76 3.2 37.8
00:20 1013 29.91 842 24.86 6.9 44.4 76 3 37.4
00:25 1013 29.91 842 24.86 6.8 44.2 77 3.1 37.5
00:30 1013 29.91 842 24.86 6.6 43.9 77 2.9 37.2
00:35 1013 29.91 842 24.86 6.6 44 76 2.8 37
00:40 1013 29.91 842 24.86 6.7 44.1 76 2.7 36.9
00:45 1013 29.91 842 24.86 6.7 44 76 2.7 36.9
00:50 1013 29.91 842 24.86 6.6 43.9 76 2.7 36.8
00:55 1013 29.91 842 24.86 6.6 43.9 76 2.7 36.8
01:00 1013 29.91 842 24.86 6.7 44 76 2.8 37
01:05 1013 29.91 842 24.86 6.5 43.8 76 2.6 36.8
01:10 1013 29.91 842 24.86 6.6 43.9 74 2.4 36.3
01:15 1013 29.91 842 24.86 6.7 44.1 76 2.9 37.2
01:20 1013 29.91 842 24.86 6.7 44.1 75 2.6 36.7
01:25 1013 29.91 842 24.86 6.7 44 76 2.7 36.9
01:30 1013 29.91 842 24.86 6.6 43.8 76 2.7 36.9
01:35 1013 29.91 842 24.86 6.3 43.4 77 2.5 36.6
01:40 1013 29.91 842 24.86 6.2 43.2 77 2.6 36.6
01:45 1013 29.91 842 24.86 6.1 43 78 2.6 36.7
01:50 1013 29.91 842 24.86 6.1 43 78 2.6 36.7
01:55 1013 29.91 843 24.89 6.2 43.2 77 2.4 36.4
02:00 1013 29.91 843 24.89 6.4 43.4 76 2.5 36.5
02:05 1013 29.91 842 24.86 6.4 43.5 76 2.5 36.5
02:10 1013 29.91 842 24.86 6.4 43.4 76 2.5 36.5
02:15 1013 29.91 842 24.86 6.3 43.4 76 2.4 36.2
02:20 1013 29.91 842 24.86 6.5 43.8 75 2.4 36.4
02:25 1013 29.91 843 24.89 6.7 44 74 2.4 36.4
02:30 1013 29.91 842 24.86 6.8 44.3 75 2.6 36.7
02:35 1013 29.91 842 24.86 6.8 44.2 74 2.6 36.6
02:40 1013 29.91 842 24.86 6.6 43.9 76 2.7 36.9
02:45 1013 29.91 842 24.86 6.3 43.4 79 2.9 37.2
02:50 1013 29.91 842 24.86 5.8 42.4 81 2.8 37
02:55 1013 29.91 842 24.86 5.7 42.3 81 2.7 36.9
03:00 1013 29.91 842 24.86 5.7 42.3 80 2.6 36.6
03:05 1013 29.91 842 24.86 5.8 42.5 80 2.7 36.9
03:10 1013 29.91 842 24.86 5.7 42.3 81 2.7 36.9
03:15 1013 29.91 842 24.86 5.8 42.4 80 2.6 36.6
03:20 1013 29.91 842 24.86 6 42.7 79 2.6 36.7
03:25 1013 29.91 842 24.86 5.9 42.6 80 2.8 37
03:30 1013 29.91 843 24.89 5.7 42.3 81 2.7 36.9
03:35 1013 29.91 843 24.89 5.8 42.4 80 2.6 36.6
03:40 1013 29.91 843 24.89 5.8 42.5 80 2.7 36.9
03:45 1013 29.91 843 24.89 5.8 42.4 80 2.6 36.7
03:50 1013 29.91 842 24.86 5.8 42.5 80 2.6 36.7
03:55 1013 29.91 842 24.86 5.8 42.4 80 2.6 36.7
04:00 1013 29.91 842 24.86 5.8 42.4 80 2.6 36.6
04:05 1013 29.91 842 24.86 5.8 42.4 78 2.3 36.1
04:10 1013 29.91 842 24.86 5.8 42.5 78 2.2 36
04:15 1013 29.91 842 24.86 5.9 42.7 76 2 35.6
04:20 1013 29.91 842 24.86 6.1 42.9 76 2.3 36.1
04:25 1013 29.91 842 24.86 5.9 42.5 78 2.3 36.1
04:30 1013 29.91 842 24.86 5.7 42.2 79 2.3 36.1
04:35 1013 29.91 842 24.86 5.8 42.4 77 2.1 35.7
04:40 1013 29.91 842 24.86 5.8 42.5 77 2.2 35.9
04:45 1013 29.91 842 24.86 5.8 42.4 78 2.2 36
04:50 1013 29.91 842 24.86 5.8 42.5 79 2.4 36.3
04:55 1013 29.91 842 24.86 5.7 42.3 79 2.4 36.3
05:00 1013 29.91 842 24.86 5.8 42.4 80 2.5 36.5
05:05 1013 29.91 842 24.86 5.7 42.2 80 2.6 36.6
05:10 1013 29.91 842 24.86 5.5 41.9 80 2.4 36.4
05:15 1013 29.91 842 24.86 5.5 41.9 80 2.3 36.2
05:20 1013 29.91 842 24.86 5.4 41.8 79 2.1 35.8
05:25 1013 29.91 842 24.86 5.5 41.9 79 2.2 35.9
05:30 1013 29.91 842 24.86 5.6 42 80 2.4 36.3
05:35 1013 29.91 842 24.86 5.7 42.3 80 2.5 36.6
05:40 1013 29.91 842 24.86 5.8 42.5 80 2.7 36.8
05:45 1013 29.91 842 24.86 5.8 42.5 80 2.6 36.7
05:50 1013 29.91 842 24.86 5.8 42.4 80 2.6 36.6
05:55 1013 29.91 842 24.86 5.9 42.6 79 2.5 36.4
06:00 1013 29.91 842 24.86 5.9 42.7 77 2.2 35.9
06:05 1013 29.91 842 24.86 6.1 43 77 2.3 36.2
06:10 1013 29.91 842 24.86 6.2 43.2 76 2.3 36.2
06:15 1013 29.91 842 24.86 6.5 43.7 74 2.2 35.9
06:20 1013 29.91 842 24.86 6.7 44.1 73 2.3 36.1
06:25 1013 29.91 842 24.86 6.9 44.4 74 2.6 36.6
06:30 1013 29.91 842 24.86 7 44.6 75 2.8 37
06:35 1013 29.91 842 24.86 7.1 44.7 74 2.7 36.9
06:40 1013 29.91 842 24.86 7.2 44.9 73 2.7 36.9
06:45 1013 29.91 842 24.86 7.3 45.2 72 2.6 36.7
06:50 1012 29.88 842 24.86 7.6 45.6 67 1.9 35.4
06:55 1012 29.88 842 24.86 8.1 46.6 64 1.7 35.1
07:00 1012 29.88 842 24.86 8.5 47.4 61 1.4 34.5
07:05 1012 29.88 842 24.86 8.9 47.9 61 1.7 35.1
07:10 1012 29.88 842 24.86 8.9 48 64 2.6 36.6
07:15 1012 29.88 842 24.86 8.4 47.2 67 2.7 36.8
07:20 1012 29.88 842 24.86 8.4 47.1 67 2.7 36.8
07:25 1012 29.88 842 24.86 8.6 47.5 66 2.7 36.8
07:30 1012 29.88 842 24.86 9.1 48.3 64 2.7 36.8
07:35 1012 29.88 842 24.86 9.5 49.1 62 2.7 36.8
07:40 1012 29.88 842 24.86 9.6 49.2 62 2.6 36.7
07:45 1012 29.88 842 24.86 10 50.1 60 2.7 36.8
07:50 1013 29.91 842 24.86 10.1 50.1 60 2.8 37.1
07:55 1013 29.91 842 24.86 10.4 50.6 60 3.1 37.5
08:00 1012 29.88 842 24.86 9.9 49.9 65 3.7 38.7
08:05 1013 29.91 842 24.86 9.8 49.7 67 4.1 39.4
08:10 1013 29.91 842 24.86 10 50 66 4 39.2
08:15 1013 29.91 842 24.86 10.1 50.2 65 3.8 38.9
08:20 1013 29.91 842 24.86 9.9 49.7 66 3.9 39
08:25 1013 29.91 842 24.86 9.9 49.8 64 3.5 38.3
08:30 1013 29.91 842 24.86 10.3 50.6 62 3.3 38
08:35 1013 29.91 842 24.86 10.1 50.2 62 3.3 37.9
08:40 1013 29.91 842 24.86 10.1 50.2 62 3.3 37.9
08:45 1013 29.91 842 24.86 9.9 49.8 62 2.9 37.2
08:50 1013 29.91 842 24.86 9.9 49.9 62 3 37.4
08:55 1013 29.91 842 24.86 10.2 50.4 61 3 37.4
09:00 1013 29.91 842 24.86 10.6 51.2 61 3.4 38.2
09:05 1013 29.91 842 24.86 10.9 51.6 59 3.3 37.9
09:10 1013 29.91 842 24.86 11.2 52.2 57 3 37.5
09:15 1013 29.91 842 24.86 10.9 51.6 57 2.9 37.2
09:20 1013 29.91 842 24.86 11 51.7 53 1.9 35.5
09:25 1013 29.91 842 24.86 11.2 52.2 54 2.4 36.4
09:30 1013 29.91 842 24.86 11.2 52.1 59 3.5 38.3
09:35 1013 29.91 842 24.86 10.3 50.6 60 3 37.4
09:40 1013 29.91 842 24.86 11.2 52.1 54 2.3 36.1
09:45 1012 29.88 842 24.86 12.1 53.7 53 2.9 37.2
09:50 1012 29.88 842 24.86 11.6 52.8 53 2.2 36
09:55 1012 29.88 842 24.86 11.8 53.3 50 1.8 35.2
10:00 1012 29.88 842 24.86 12 53.7 51 2.4 36.3
10:05 1012 29.88 841 24.83 12.6 54.7 49 2.2 36
10:10 1012 29.88 841 24.83 13.4 56.1 47 2.5 36.4
10:15 1012 29.88 841 24.83 13.4 56.1 50 3.2 37.7
10:20 1012 29.88 841 24.83 11.7 53.1 53 2.4 36.4
10:25 1012 29.88 841 24.83 11.7 53 53 2.4 36.4
10:30 1012 29.88 841 24.83 11.6 52.9 51 1.8 35.3
10:35 1012 29.88 841 24.83 12.1 53.7 52 2.5 36.5
10:40 1012 29.88 841 24.83 12 53.5 49 1.8 35.2
10:45 1012 29.88 841 24.83 12.9 55.2 47 2 35.5
10:50 1012 29.88 841 24.83 13 55.5 48 2.3 36.1
10:55 1012 29.88 841 24.83 13.2 55.8 47 2.2 36
11:00 1012 29.88 841 24.83 12.7 54.8 48 2.1 35.8
11:05 1012 29.88 841 24.83 13 55.3 48 2.2 35.9
11:10 1012 29.88 841 24.83 13.4 56.2 46 2 35.6
11:15 1012 29.88 841 24.83 13.1 55.5 48 2.3 36.2
11:20 1012 29.88 841 24.83 13.1 55.6 48 2.4 36.3
11:25 1012 29.88 841 24.83 13.3 55.9 47 2.2 36
11:30 1012 29.88 841 24.83 13.5 56.2 46 2 35.6
11:35 1012 29.88 841 24.83 13.5 56.2 46 2.1 35.7
11:40 1012 29.88 841 24.83 13.8 56.8 44 1.9 35.5
11:45 1012 29.88 841 24.83 13.6 56.4 45 2.1 35.7
11:50 1012 29.88 841 24.83 13.4 56.2 44 1.5 34.8
11:55 1012 29.88 841 24.83 13.3 55.9 45 1.6 35
12:00 1012 29.88 841 24.83 13.6 56.4 44 1.5 34.7
12:05 1012 29.88 841 24.83 13.9 57 42 1.3 34.3
12:10 1011 29.85 841 24.83 14.6 58.4 39 1 33.7
12:15 1011 29.85 841 24.83 14.8 58.6 41 1.7 35.1
12:20 1011 29.85 841 24.83 14.9 58.7 40 1.6 34.8
12:25 1011 29.85 841 24.83 14.9 58.8 40 1.7 35
12:30 1011 29.85 840 24.81 14.2 57.6 42 1.6 34.8
12:35 1011 29.85 840 24.81 14.1 57.4 39 0.5 33
12:40 1011 29.85 840 24.81 15.1 59.1 37 0.7 33.3
12:45 1011 29.85 840 24.81 14.8 58.7 39 1 33.7
12:50 1011 29.85 840 24.81 14.9 58.8 38 0.8 33.5
12:55 1011 29.85 840 24.81 15 59.1 38 1 33.8
13:00 1011 29.85 840 24.81 14.7 58.4 40 1.2 34.1
13:05 1011 29.85 840 24.81 14.4 58 40 1.2 34.2
13:10 1011 29.85 840 24.81 14.3 57.8 39 0.7 33.3
13:15 1011 29.85 840 24.81 14.3 57.7 40 0.9 33.6
13:20 1011 29.85 840 24.81 13.9 56.9 43 1.7 35.1
13:25 1011 29.85 840 24.81 13.7 56.6 50 3.6 38.5
13:30 1011 29.85 840 24.81 13.6 56.6 50 3.6 38.4
13:35 1011 29.85 840 24.81 13.1 55.5 51 3.1 37.6
13:40 1011 29.85 840 24.81 12.4 54.3 60 5 41
13:45 1011 29.85 841 24.83 11.6 53 62 4.7 40.5
13:50 1011 29.85 841 24.83 11.6 52.8 61 4.4 40
13:55 1011 29.85 841 24.83 11.8 53.2 57 3.6 38.5
14:00 1011 29.85 841 24.83 12.2 53.9 59 4.5 40.1
14:05 1011 29.85 841 24.83 13.2 55.7 53 3.8 38.8
14:10 1011 29.85 841 24.83 13.4 56 50 3.2 37.8
14:15 1011 29.85 841 24.83 13.2 55.7 54 4.2 39.6
14:20 1011 29.85 841 24.83 13.3 55.9 48 2.7 36.8
14:25 1011 29.85 841 24.83 13.2 55.7 48 2.4 36.3
14:30 1011 29.85 841 24.83 13.1 55.6 48 2.5 36.5
14:35 1011 29.85 840 24.81 13.5 56.3 45 1.8 35.3
14:40 1011 29.85 840 24.81 14 57.2 44 2.1 35.7
14:45 1011 29.85 840 24.81 14.3 57.7 44 2.2 35.9
14:50 1011 29.85 840 24.81 14.8 58.6 41 1.6 34.9
14:55 1011 29.85 840 24.81 14.8 58.6 42 2.1 35.8
15:00 1011 29.85 840 24.81 14.5 58.1 42 1.7 35
15:05 1011 29.85 840 24.81 14.2 57.5 43 1.7 35.1
15:10 1011 29.85 840 24.81 14.2 57.6 43 1.9 35.4
15:15 1011 29.85 840 24.81 14.2 57.6 42 1.7 35.1
15:20 1011 29.85 840 24.81 14.3 57.8 42 1.7 35
15:25 1011 29.85 840 24.81 14 57.2 44 2 35.5
15:30 1011 29.85 840 24.81 13.7 56.6 44 1.6 34.9
15:35 1011 29.85 840 24.81 13.9 57.1 44 1.9 35.5
15:40 1011 29.85 840 24.81 13.7 56.7 44 1.7 35
15:45 1011 29.85 840 24.81 13.8 56.8 44 1.9 35.5
15:50 1011 29.85 840 24.81 13.7 56.7 44 1.9 35.3
15:55 1011 29.85 840 24.81 14.1 57.4 42 1.3 34.3
16:00 1011 29.85 840 24.81 14.2 57.6 42 1.6 34.9
16:05 1011 29.85 840 24.81 14.4 57.9 41 1.3 34.4
16:10 1011 29.85 840 24.81 14.1 57.4 43 1.6 34.9
16:15 1011 29.85 840 24.81 13.6 56.6 44 1.7 35.1
16:20 1011 29.85 840 24.81 13.4 56.1 44 1.4 34.6
16:25 1011 29.85 840 24.81 13.3 55.9 45 1.7 35
16:30 1011 29.85 840 24.81 13.4 56.1 44 1.5 34.7
16:35 1011 29.85 840 24.81 13.4 56 45 1.6 34.9
16:40 1011 29.85 840 24.81 13 55.4 46 1.8 35.2
16:45 1011 29.85 840 24.81 13 55.4 47 2 35.7
16:50 1011 29.85 840 24.81 13 55.3 50 2.8 37.1
16:55 1011 29.85 840 24.81 12.5 54.4 52 3 37.4
17:00 1011 29.85 840 24.81 12.3 54.1 54 3.4 38
17:05 1011 29.85 840 24.81 12.4 54.3 50 2.4 36.3
17:10 1011 29.85 840 24.81 12.2 54 54 3.4 38.1
17:15 1011 29.85 840 24.81 11.7 53 57 3.6 38.5
17:20 1011 29.85 840 24.81 11.2 52.1 61 3.9 39
17:25 1011 29.85 840 24.81 10.6 51.1 66 4.5 40.1
17:30 1011 29.85 840 24.81 10.2 50.4 70 4.9 40.9
17:35 1011 29.85 841 24.83 10.1 50.2 66 4.1 39.4
17:40 1011 29.85 841 24.83 10.2 50.3 67 4.4 40
17:45 1012 29.88 841 24.83 9.9 49.9 68 4.4 39.9
17:50 1012 29.88 841 24.83 9.6 49.2 70 4.3 39.8
17:55 1012 29.88 841 24.83 9.5 49.1 71 4.5 40.1
18:00 1012 29.88 841 24.83 9.7 49.4 68 4.1 39.4
18:05 1012 29.88 841 24.83 9.7 49.5 68 4.2 39.6
18:10 1012 29.88 841 24.83 9.8 49.6 68 4.2 39.6
18:15 1012 29.88 841 24.83 9.8 49.6 69 4.3 39.8
18:20 1012 29.88 841 24.83 9.7 49.5 69 4.4 39.9
18:25 1012 29.88 841 24.83 9.5 49 71 4.4 39.9
18:30 1012 29.88 841 24.83 9.6 49.2 69 4.2 39.5
18:35 1012 29.88 841 24.83 9.6 49.2 69 4.2 39.6
18:40 1012 29.88 841 24.83 9.5 49 69 4.2 39.5
18:45 1012 29.88 841 24.83 9.5 49 69 4.1 39.3
18:50 1012 29.88 841 24.83 9.3 48.7 68 3.8 38.9
18:55 1012 29.88 841 24.83 9.1 48.4 70 3.9 39
19:00 1012 29.88 841 24.83 9 48.1 71 4 39.2
19:05 1012 29.88 841 24.83 8.9 48 72 4.1 39.3
19:10 1012 29.88 841 24.83 8.9 48 72 4 39.3
19:15 1012 29.88 841 24.83 8.8 47.8 72 4.1 39.4
19:20 1012 29.88 841 24.83 8.7 47.6 72 3.9 39
19:25 1012 29.88 841 24.83 8.6 47.5 72 3.8 38.8
19:30 1012 29.88 841 24.83 8.6 47.4 72 3.8 38.9
19:35 1012 29.88 841 24.83 8.5 47.3 72 3.8 38.9
19:40 1012 29.88 842 24.86 8.5 47.3 73 4 39.2
19:45 1012 29.88 842 24.86 8.4 47 75 4.1 39.4
19:50 1012 29.88 841 24.83 8.2 46.8 75 4.1 39.3
19:55 1012 29.88 842 24.86 8.2 46.7 76 4.2 39.5
20:00 1012 29.88 842 24.86 8.1 46.6 76 4.2 39.6
20:05 1012 29.88 842 24.86 8.1 46.6 77 4.2 39.6
20:10 1012 29.88 842 24.86 8.1 46.5 76 4.2 39.5
20:15 1012 29.88 842 24.86 8.1 46.6 76 4.2 39.6
20:20 1012 29.88 842 24.86 8.1 46.6 76 4.2 39.5
20:25 1013 29.91 842 24.86 8.1 46.6 76 4.2 39.5
20:30 1013 29.91 842 24.86 8.2 46.7 73 3.6 38.5
20:35 1013 29.91 842 24.86 8.3 47 70 3.2 37.7
20:40 1013 29.91 842 24.86 8.4 47.1 70 3.2 37.7
20:45 1013 29.91 842 24.86 8.4 47.1 69 3.1 37.7
20:50 1013 29.91 842 24.86 8.3 46.9 71 3.4 38.1
20:55 1013 29.91 842 24.86 8.1 46.6 73 3.6 38.4
21:00 1013 29.91 842 24.86 7.8 46 76 3.8 38.9
21:05 1013 29.91 842 24.86 7.4 45.4 78 3.8 38.9
21:10 1013 29.91 842 24.86 7.2 44.9 80 3.9 39.1
21:15 1013 29.91 842 24.86 7.2 45 80 3.9 39.1
21:20 1013 29.91 842 24.86 7.3 45.2 79 4 39.2
21:25 1013 29.91 842 24.86 7.4 45.2 78 3.9 39
21:30 1013 29.91 842 24.86 7.4 45.2 79 3.9 39.1
21:35 1013 29.91 842 24.86 7.4 45.3 78 3.9 39
21:40 1013 29.91 842 24.86 7.3 45.2 78 3.8 38.9
21:45 1013 29.91 842 24.86 7.2 45 79 3.9 39
21:50 1013 29.91 842 24.86 7.2 44.9 81 4.1 39.4
21:55 1013 29.91 842 24.86 7.1 44.7 82 4.3 39.7
22:00 1013 29.91 842 24.86 7 44.5 84 4.4 39.9
22:05 1013 29.91 842 24.86 6.8 44.2 85 4.4 40
22:10 1013 29.91 842 24.86 6.5 43.8 85 4.2 39.5
22:15 1013 29.91 842 24.86 6.4 43.5 86 4.2 39.6
22:20 1013 29.91 842 24.86 6.2 43.1 87 4.2 39.6
22:25 1013 29.91 842 24.86 6 42.8 88 4.2 39.5
22:30 1013 29.91 842 24.86 5.9 42.6 89 4.2 39.5
22:35 1013 29.91 842 24.86 5.8 42.5 87 3.8 38.9
22:40 1013 29.91 842 24.86 5.8 42.4 85 3.5 38.4
22:45 1013 29.91 842 24.86 5.8 42.4 85 3.4 38.1
22:50 1013 29.91 842 24.86 5.8 42.4 83 3.1 37.6
22:55 1013 29.91 842 24.86 5.8 42.5 82 3 37.4
23:00 1013 29.91 842 24.86 5.8 42.4 83 3.2 37.7
23:05 1013 29.91 842 24.86 5.7 42.2 85 3.4 38.1
23:10 1013 29.91 842 24.86 5.6 42.1 86 3.5 38.3
23:15 1013 29.91 842 24.86 5.6 42.1 87 3.7 38.6
23:20 1013 29.91 842 24.86 5.5 41.9 88 3.7 38.7
23:25 1013 29.91 842 24.86 5.4 41.7 88 3.6 38.5
23:30 1013 29.91 842 24.86 5.3 41.6 89 3.6 38.5
23:35 1013 29.91 842 24.86 5.2 41.4 90 3.7 38.6
23:40 1013 29.91 842 24.86 5 41 91 3.7 38.6
23:45 1013 29.91 842 24.86 4.9 40.8 88 3.1 37.6
23:50 1013 29.91 842 24.86 5 41 87 3.1 37.5
23:55 1013 29.91 842 24.86 5.1 41.1 88 3.2 37.8
24:00 1013 29.91 842 24.86 5 41.1 88 3.2 37.7